Terminal Aerodrome Forecast
Issued by NWS

Home | Current Version | Previous Version | Text Only | Print | Product List | Glossary On
Versions: 1 2 3 4 5 6 7 8 9 10 11 12 13 14 15 16 17 18 19 20 21
000
FTPA31 PHFO 232347
TAFHNY
TAF
PHNY 232347Z 2400/2424 17011KT P6SM VCSH BKN015
     FM240400 19010KT P6SM -RA SCT007 BKN015
     FM241000 22011KT P6SM VCTS BKN007CB BKN015
     FM241700 33010G18KT P6SM VCSH SCT010 BKN025=

USA.gov is the U.S. government's official web portal to all federal, state and local government web resources and services.